»·PEaware :: N467LW KDEN-KASE

N467LW :: KDEN-KASE

FLIGHT INFORMATION

Flight Status: Arrived
Operator: Privately registered:
United States
More flights under this callsign
Pilot: Sanjiv S. (4490)
Aircraft: BEECH AIRCRAFT A90-E90 KING AIR
(BE9L)
More flights by this aircraft type
Origin: KDEN Denver Intl
United States
Destination: KASE Aspen-Pitkin Co/Sardy
United States
More flights between these airports :: More routes between these airports
Route: ROCKI3 DBL
File this flight plan on PilotEdge
Remarks:
Altitude:
(Current/Filed)
18,000ft
Speed:
(Current/Filed)
200kts
Departed: 15-Dec-17 09:57 AM
Arrived: 15-Dec-17 10:45 AM
Distance/Time
Traveled:
109nm/0:47
Distance/Time
To Go:
Arrived

Flight Plot

Page will automatically refresh every two minutes.


Map Options




Map Legend


Flown Route
Filed Route
Departure Airport
Arrival Airport
Navaid (VOR, NDB)
Fix

Horizontal Profiles

Position Reports

Time Latitude Longitude Heading Altitude Ground
Speed
15-Dec-17 09:35 39.839745 -104.664703 180 5322ft 0kts
15-Dec-17 09:36 39.839745 -104.664703 180 5322ft 0kts
15-Dec-17 09:37 39.839745 -104.664703 180 5322ft 0kts
15-Dec-17 09:38 39.839745 -104.664703 180 5322ft 0kts
15-Dec-17 09:39 39.839745 -104.664703 180 5322ft 0kts
15-Dec-17 09:40 39.839745 -104.664703 180 5322ft 0kts
15-Dec-17 09:41 39.839745 -104.664703 180 5322ft 0kts
15-Dec-17 09:42 39.839745 -104.664703 180 5322ft 0kts
15-Dec-17 09:43 39.839745 -104.664703 180 5322ft 0kts
15-Dec-17 09:44 39.839745 -104.664703 180 5322ft 0kts
15-Dec-17 09:45 39.839745 -104.664703 180 5322ft 0kts
15-Dec-17 09:46 39.839745 -104.664703 180 5322ft 0kts
15-Dec-17 09:47 39.839745 -104.664703 180 5322ft 0kts
15-Dec-17 09:48 39.839745 -104.664703 180 5322ft 0kts
15-Dec-17 09:49 39.839745 -104.664703 180 5322ft 0kts
15-Dec-17 09:50 39.839745 -104.664703 180 5322ft 0kts
15-Dec-17 09:51 39.839745 -104.664703 180 5322ft 0kts
15-Dec-17 09:52 39.839745 -104.664703 180 5322ft 0kts
15-Dec-17 09:53 39.839732 -104.664703 180 5322ft 0kts
15-Dec-17 09:54 39.840714 -104.662556 10 5322ft 14kts
15-Dec-17 09:55 39.845235 -104.662454 359 5322ft 18kts
15-Dec-17 09:56 39.850741 -104.662393 359 5322ft 21kts
15-Dec-17 09:57 39.856911 -104.662313 359 5322ft 22kts
15-Dec-17 09:58 39.860987 -104.661924 79 5322ft 8kts
15-Dec-17 09:59 39.860987 -104.661409 89 5322ft 0kts
15-Dec-17 10:00 39.860987 -104.661409 89 5322ft 0kts
15-Dec-17 10:01 39.860987 -104.661408 89 5322ft 0kts
15-Dec-17 10:02 39.860403 -104.660179 180 5322ft 15kts
15-Dec-17 10:03 39.833397 -104.659519 190 6195ft 107kts
15-Dec-17 10:04 39.797392 -104.663073 192 7328ft 146kts
15-Dec-17 10:05 39.761457 -104.677135 264 8667ft 129kts
15-Dec-17 10:06 39.776625 -104.718057 298 9719ft 128kts
15-Dec-17 10:07 39.793681 -104.760586 298 10369ft 148kts
15-Dec-17 10:08 39.794799 -104.817897 266 10026ft 169kts
15-Dec-17 10:09 39.788098 -104.876537 266 10096ft 164kts
15-Dec-17 10:10 39.781414 -104.935295 266 10948ft 166kts
15-Dec-17 10:11 39.774581 -104.995370 264 11681ft 170kts
15-Dec-17 10:12 39.767615 -105.056334 263 12330ft 174kts
15-Dec-17 10:13 39.760345 -105.119316 261 12884ft 181kts
15-Dec-17 10:14 39.753133 -105.181532 262 13870ft 162kts
15-Dec-17 10:15 39.746777 -105.236037 263 14965ft 149kts
15-Dec-17 10:16 39.740530 -105.289396 263 15829ft 149kts
15-Dec-17 10:17 39.734251 -105.342731 264 16618ft 150kts
15-Dec-17 10:18 39.727923 -105.396507 265 17348ft 150kts
15-Dec-17 10:19 39.721555 -105.450153 266 18018ft 150kts
15-Dec-17 10:20 39.714750 -105.507924 265 18121ft 173kts
15-Dec-17 10:21 39.707113 -105.571717 264 18121ft 183kts
15-Dec-17 10:22 39.699174 -105.638064 265 18145ft 184kts
15-Dec-17 10:23 39.685875 -105.700730 277 18221ft 180kts
15-Dec-17 10:24 39.682008 -105.766093 264 18291ft 183kts
15-Dec-17 10:25 39.671506 -105.830815 260 18374ft 184kts
15-Dec-17 10:26 39.658783 -105.895194 259 18391ft 186kts
15-Dec-17 10:27 39.645146 -105.960250 259 18383ft 187kts
15-Dec-17 10:28 39.631175 -106.025537 259 18375ft 188kts
15-Dec-17 10:29 39.617087 -106.090821 259 18365ft 188kts
15-Dec-17 10:30 39.602921 -106.156051 258 18345ft 188kts
15-Dec-17 10:31 39.588686 -106.221362 258 18327ft 188kts
15-Dec-17 10:32 39.574313 -106.286963 258 18314ft 188kts
15-Dec-17 10:33 39.560026 -106.352123 259 18324ft 187kts
15-Dec-17 10:34 39.545855 -106.416552 259 18182ft 185kts
15-Dec-17 10:35 39.531845 -106.480184 258 17302ft 183kts
15-Dec-17 10:36 39.517837 -106.543257 257 16391ft 181kts
15-Dec-17 10:37 39.513410 -106.603927 269 16096ft 154kts
15-Dec-17 10:38 39.511216 -106.655777 268 16101ft 140kts
15-Dec-17 10:39 39.508937 -106.709417 268 16107ft 163kts
15-Dec-17 10:40 39.506765 -106.767568 268 15472ft 161kts
15-Dec-17 10:41 39.505057 -106.825435 268 14606ft 161kts
15-Dec-17 10:42 39.503452 -106.882823 268 13790ft 159kts
15-Dec-17 10:43 39.463489 -106.897404 178 13082ft 172kts
15-Dec-17 10:44 39.421889 -106.890619 178 13032ft 130kts
15-Dec-17 10:45 39.390681 -106.897880 227 12674ft 112kts
15-Dec-17 10:46 39.364833 -106.921391 199 12072ft 123kts
15-Dec-17 10:46 39.336545 -106.920094 166 11839ft 138kts
15-Dec-17 10:48 39.291666 -106.900050 167 9942ft 150kts
15-Dec-17 10:49 39.258996 -106.885765 167 8244ft 116kts
15-Dec-17 10:49 39.232851 -106.873485 163 7829ft 119kts
15-Dec-17 10:50 39.220454 -106.866523 29 7777ft 0kts
15-Dec-17 10:52 39.220530 -106.866495 8 7777ft 1kts
15-Dec-17 10:53 39.221893 -106.866818 38 7777ft 9kts

Navigation Log

Ident Type
1. KDEN Airport
2. DEN Navaid
3. CONNR Fix
4. DBL Navaid
5. KASE Airport